
Distance (Route):
Temperature : -5.4°C
Humidity : 58.2%
Pressure : 0hPa| Receiver | Frames | First received | Last received |
|---|---|---|---|
| OM5KV | 138 | 2026-09-05 18:19:05 | 2026-09-05 18:40:25 |
| LZ4TU-5 | 136 | 2026-09-05 17:34:19 | 2026-09-05 18:59:06 |
| OE3JTB-15 | 14 | 2026-09-05 18:08:32 | 2026-09-05 18:44:17 |
| 9A1FER-3 | 5 | 2026-09-05 18:43:01 | 2026-09-05 18:46:03 |
| GYPAP8-17 | 3 | 2026-09-05 18:17:52 | 2026-09-05 18:19:25 |
| Receiver | Date | Latitude | Longitude | Direction | Speed | Altitude | Climb | Temperature | Humidity | Pressure | Voltage | Killtimer | Uptime | BKT | XDATA |
|---|---|---|---|---|---|---|---|---|---|---|---|---|---|---|---|
| LZ4TU-5 | 2026-09-05 18:59:06 | 44.56680 | 21.33100 | 98° | 62km/h | 5204m | -16.9m/s | -5.4°C | 58.2% | 0hPa | 5.3V | 00:00:00 | 00:00:00 | 00:00:00 | |
| LZ4TU-5 | 2026-09-05 18:59:02 | 44.56688 | 21.33011 | 99° | 62km/h | 5273m | -17.1m/s | -6.1°C | 58.3% | 0hPa | 5.3V | 00:00:00 | 00:00:00 | 00:00:00 | |
| LZ4TU-5 | 2026-09-05 18:57:53 | 44.56986 | 21.31311 | 105° | 71km/h | 6477m | -18.0m/s | -13.3°C | 30.5% | 0hPa | 5.3V | 00:00:00 | 00:00:00 | 00:00:00 | |
| LZ4TU-5 | 2026-09-05 18:57:49 | 44.57004 | 21.31215 | 105° | 69km/h | 6552m | -18.1m/s | -14.0°C | 31.0% | 0hPa | 5.3V | 00:00:00 | 00:00:00 | 00:00:00 | |
| LZ4TU-5 | 2026-09-05 18:56:42 | 44.57278 | 21.29476 | 100° | 86km/h | 7791m | -19.7m/s | -22.1°C | 61.4% | 0hPa | 5.3V | 00:00:00 | 00:00:00 | 00:00:00 | |
| LZ4TU-5 | 2026-09-05 18:56:37 | 44.57296 | 21.29327 | 103° | 86km/h | 7887m | -19.9m/s | -22.9°C | 50.5% | 0hPa | 5.3V | 00:00:00 | 00:00:00 | 00:00:00 | |
| LZ4TU-5 | 2026-09-05 18:50:03 | 44.60590 | 21.19165 | 111° | 33km/h | 18614m | -41.4m/s | -56.7°C | 0.0% | 0hPa | 5.3V | 00:00:00 | 00:00:00 | 00:00:00 | |
| LZ4TU-5 | 2026-09-05 18:49:59 | 44.60598 | 21.19123 | 101° | 29km/h | 18774m | -42.1m/s | -56.9°C | 0.0% | 0hPa | 5.3V | 00:00:00 | 00:00:00 | 00:00:00 | |
| LZ4TU-5 | 2026-09-05 18:49:54 | 44.60601 | 21.19073 | 99° | 29km/h | 18994m | -42.9m/s | -57.4°C | 0.0% | 0hPa | 5.3V | 00:00:00 | 00:00:00 | 00:00:00 | |
| LZ4TU-5 | 2026-09-05 18:49:46 | 44.60624 | 21.19004 | 123° | 22km/h | 19349m | -44.0m/s | -57.0°C | 0.0% | 0hPa | 5.3V | 00:00:00 | 00:00:00 | 00:00:00 | |
| LZ4TU-5 | 2026-09-05 18:48:31 | 44.60646 | 21.18637 | 166° | 15km/h | 23181m | -59.5m/s | -51.7°C | 0.0% | 0hPa | 5.3V | 00:00:00 | 00:00:00 | 00:00:00 | |
| LZ4TU-5 | 2026-09-05 18:48:26 | 44.60664 | 21.18638 | 218° | 5km/h | 23486m | -60.5m/s | -52.0°C | 0.0% | 0hPa | 5.3V | 00:00:00 | 00:00:00 | 00:00:00 | |
| LZ4TU-5 | 2026-09-05 18:47:12 | 44.60703 | 21.18559 | 254° | 5km/h | 28956m | -93.0m/s | -40.9°C | 0.0% | 0hPa | 5.3V | 00:00:00 | 00:00:00 | 00:00:00 | |
| LZ4TU-5 | 2026-09-05 18:47:08 | 44.60703 | 21.18566 | 249° | 5km/h | 29309m | -95.6m/s | -39.8°C | 0.0% | 0hPa | 5.3V | 00:00:00 | 00:00:00 | 00:00:00 | |
| LZ4TU-5 | 2026-09-05 18:46:56 | 44.60702 | 21.18584 | 268° | 7km/h | 30492m | -102.9m/s | -37.8°C | 0.0% | 0hPa | 5.3V | 00:00:00 | 00:00:00 | 00:00:00 | |
| LZ4TU-5 | 2026-09-05 18:46:51 | 44.60700 | 21.18600 | 273° | 7km/h | 31113m | -103.6m/s | -37.1°C | 0.0% | 0hPa | 5.3V | 00:00:00 | 00:00:00 | 00:00:00 | |
| 9A1FER-3 | 2026-09-05 18:46:03 | 44.60699 | 21.18617 | 344° | 22km/h | 32834m | 9.4m/s | -37.9°C | 0% | 0hPa | 5.3V | 00:00:00 | 00:00:00 | 00:00:00 | |
| LZ4TU-5 | 2026-09-05 18:45:32 | 44.60602 | 21.18697 | 32° | 16km/h | 32598m | 6.7m/s | -37.8°C | 0.0% | 0hPa | 5.3V | 00:00:00 | 00:00:00 | 00:00:00 | |
| LZ4TU-5 | 2026-09-05 18:45:28 | 44.60594 | 21.18715 | 276° | 40km/h | 32569m | 8.7m/s | -38.1°C | 0.0% | 0hPa | 5.3V | 00:00:00 | 00:00:00 | 00:00:00 | |
| 9A1FER-3 | 2026-09-05 18:45:25 | 44.60595 | 21.18756 | 269° | 20km/h | 32548m | 6.0m/s | -38.1°C | 0% | 0hPa | 5.3V | 00:00:00 | 00:00:00 | 00:00:00 | |
| 9A1FER-3 | 2026-09-05 18:44:56 | 44.60570 | 21.18821 | 23° | 33km/h | 32348m | 4.0m/s | -38.2°C | 0% | 0hPa | 5.4V | 00:00:00 | 00:00:00 | 00:00:00 | |
| OE3JTB-15 | 2026-09-05 18:44:17 | 44.60574 | 21.19111 | 236° | 29km/h | 32077m | 7.7m/s | -37.5°C | 0% | 0hPa | 5.4V | 00:00:00 | 00:00:00 | 00:00:00 | |
| LZ4TU-5 | 2026-09-05 18:44:14 | 44.60603 | 21.19130 | 171° | 38km/h | 32060m | 4.7m/s | -37.6°C | 0.0% | 0hPa | 5.4V | 00:00:00 | 00:00:00 | 00:00:00 | |
| LZ4TU-5 | 2026-09-05 18:44:10 | 44.60610 | 21.19125 | 315° | 27km/h | 32033m | 4.5m/s | -37.6°C | 0.0% | 0hPa | 5.4V | 00:00:00 | 00:00:00 | 00:00:00 | |
| 9A1FER-3 | 2026-09-05 18:43:26 | 44.60725 | 21.19262 | 81° | 18km/h | 31745m | 2.7m/s | -39.5°C | 0% | 0hPa | 5.4V | 00:00:00 | 00:00:00 | 00:00:00 | |
| 9A1FER-3 | 2026-09-05 18:43:01 | 44.60686 | 21.19275 | 151° | 31km/h | 31586m | 4.2m/s | -39.9°C | 0% | 0hPa | 5.4V | 00:00:00 | 00:00:00 | 00:00:00 | |
| LZ4TU-5 | 2026-09-05 18:42:56 | 44.60684 | 21.19333 | 290° | 35km/h | 31547m | 5.4m/s | -40.2°C | 0.0% | 0hPa | 5.4V | 00:00:00 | 00:00:00 | 00:00:00 | |
| LZ4TU-5 | 2026-09-05 18:42:51 | 44.60674 | 21.19325 | 104° | 26km/h | 31513m | 4.5m/s | -40.5°C | 0.0% | 0hPa | 5.4V | 00:00:00 | 00:00:00 | 00:00:00 | |
| OE3JTB-15 | 2026-09-05 18:41:47 | 44.60668 | 21.19440 | 4° | 16km/h | 31085m | 7.4m/s | -41.7°C | 0% | 0hPa | 5.4V | 00:00:00 | 00:00:00 | 00:00:00 | |
| LZ4TU-5 | 2026-09-05 18:41:40 | 44.60616 | 21.19434 | 344° | 4km/h | 31032m | 9.4m/s | -42.0°C | 0.0% | 0hPa | 5.5V | 00:00:00 | 00:00:00 | 00:00:00 | |
| LZ4TU-5 | 2026-09-05 18:41:36 | 44.60633 | 21.19448 | 222° | 18km/h | 31002m | 4.2m/s | -42.1°C | 0.0% | 0hPa | 5.5V | 00:00:00 | 00:00:00 | 00:00:00 | |
| OE3JTB-15 | 2026-09-05 18:40:52 | 44.60612 | 21.19594 | 279° | 26km/h | 30685m | 6.1m/s | -41.3°C | 0% | 0hPa | 5.5V | 00:00:00 | 00:00:00 | 00:00:00 | |
| OM5KV | 2026-09-05 18:40:25 | 44.60670 | 21.19686 | 174° | 27km/h | 30484m | 8.1m/s | -42.0°C | 0.0% | 0hPa | 5.5V | 00:00:00 | 00:00:00 | 00:00:00 | |
| LZ4TU-5 | 2026-09-05 18:40:24 | 44.60677 | 21.19683 | 146° | 27km/h | 30475m | 9.0m/s | -42.0°C | 0.0% | 0hPa | 5.5V | 00:00:00 | 00:00:00 | 00:00:00 | |
| LZ4TU-5 | 2026-09-05 18:40:20 | 44.60685 | 21.19664 | 0° | 0km/h | 30445m | 6.9m/s | -42.0°C | 0.0% | 0hPa | 5.5V | 00:00:00 | 00:00:00 | 00:00:00 | |
| OM5KV | 2026-09-05 18:40:19 | 44.60686 | 21.19666 | 267° | 5km/h | 30437m | 7.9m/s | -42.1°C | 0.0% | 0hPa | 5.5V | 00:00:00 | 00:00:00 | 00:00:00 | |
| OM5KV | 2026-09-05 18:40:14 | 44.60704 | 21.19691 | 202° | 37km/h | 30401m | 8.0m/s | -42.3°C | 0.0% | 0hPa | 5.5V | 00:00:00 | 00:00:00 | 00:00:00 | |
| OM5KV | 2026-09-05 18:40:09 | 44.60725 | 21.19678 | 34° | 22km/h | 30367m | 8.1m/s | -42.5°C | 0.0% | 0hPa | 5.5V | 00:00:00 | 00:00:00 | 00:00:00 | |
| OM5KV | 2026-09-05 18:39:58 | 44.60744 | 21.19698 | 102° | 9km/h | 30288m | 9.5m/s | -43.1°C | 0.0% | 0hPa | 5.5V | 00:00:00 | 00:00:00 | 00:00:00 | |
| OM5KV | 2026-09-05 18:39:53 | 44.60739 | 21.19685 | 216° | 16km/h | 30254m | 5.9m/s | -43.3°C | 0.0% | 0hPa | 5.5V | 00:00:00 | 00:00:00 | 00:00:00 | |
| OM5KV | 2026-09-05 18:39:41 | 44.60765 | 21.19662 | 119° | 15km/h | 30168m | 6.5m/s | -43.6°C | 0.0% | 0hPa | 5.5V | 00:00:00 | 00:00:00 | 00:00:00 | |
| OM5KV | 2026-09-05 18:39:35 | 44.60796 | 21.19650 | 123° | 4km/h | 30127m | 9.5m/s | -43.8°C | 0.0% | 0hPa | 5.5V | 00:00:00 | 00:00:00 | 00:00:00 | |
| OM5KV | 2026-09-05 18:39:30 | 44.60776 | 21.19642 | 305° | 7km/h | 30092m | 6.7m/s | -43.7°C | 0.0% | 0hPa | 5.5V | 00:00:00 | 00:00:00 | 00:00:00 | |
| OM5KV | 2026-09-05 18:39:25 | 44.60793 | 21.19645 | 145° | 13km/h | 30057m | 6.0m/s | -43.8°C | 0.0% | 0hPa | 5.5V | 00:00:00 | 00:00:00 | 00:00:00 | |
| OM5KV | 2026-09-05 18:39:19 | 44.60775 | 21.19623 | 358° | 20km/h | 30019m | 4.9m/s | -43.8°C | 0.0% | 0hPa | 5.5V | 00:00:00 | 00:00:00 | 00:00:00 | |
| OM5KV | 2026-09-05 18:39:13 | 44.60782 | 21.19645 | 0° | 0km/h | 29978m | 7.9m/s | -43.8°C | 0.0% | 0hPa | 5.5V | 00:00:00 | 00:00:00 | 00:00:00 | |
| OM5KV | 2026-09-05 18:39:07 | 44.60745 | 21.19635 | 313° | 26km/h | 29938m | 5.6m/s | -43.7°C | 0.0% | 0hPa | 5.5V | 00:00:00 | 00:00:00 | 00:00:00 | |
| LZ4TU-5 | 2026-09-05 18:39:02 | 44.60753 | 21.19651 | 148° | 11km/h | 29908m | 3.5m/s | -43.6°C | 0.0% | 0hPa | 5.5V | 00:00:00 | 00:00:00 | 00:00:00 | |
| OM5KV | 2026-09-05 18:39:01 | 44.60753 | 21.19650 | 49° | 5km/h | 29901m | 6.9m/s | -43.5°C | 0.0% | 0hPa | 5.5V | 00:00:00 | 00:00:00 | 00:00:00 | |
| OE3JTB-15 | 2026-09-05 18:38:57 | 44.60723 | 21.19652 | 343° | 16km/h | 29875m | 3.6m/s | -43.1°C | 0% | 0hPa | 5.5V | 00:00:00 | 00:00:00 | 00:00:00 | |
| OM5KV | 2026-09-05 18:38:56 | 44.60717 | 21.19656 | 327° | 22km/h | 29870m | 5.4m/s | -43.5°C | 0.0% | 0hPa | 5.5V | 00:00:00 | 00:00:00 | 00:00:00 | |
| OM5KV | 2026-09-05 18:38:50 | 44.60730 | 21.19687 | 45° | 2km/h | 29829m | 8.2m/s | -43.3°C | 0.0% | 0hPa | 5.5V | 00:00:00 | 00:00:00 | 00:00:00 | |
| LZ4TU-5 | 2026-09-05 18:37:36 | 44.60748 | 21.19732 | 295° | 9km/h | 29346m | 6.6m/s | -43.9°C | 0.0% | 0hPa | 5.5V | 00:00:00 | 00:00:00 | 00:00:00 | |
| LZ4TU-5 | 2026-09-05 18:37:31 | 44.60768 | 21.19720 | 110° | 22km/h | 29313m | 6.2m/s | -43.9°C | 0.0% | 0hPa | 5.5V | 00:00:00 | 00:00:00 | 00:00:00 | |
| LZ4TU-5 | 2026-09-05 18:36:13 | 44.60760 | 21.19598 | 147° | 11km/h | 28775m | 6.2m/s | -46.3°C | 0.0% | 0hPa | 5.5V | 00:00:00 | 00:00:00 | 00:00:00 | |
| LZ4TU-5 | 2026-09-05 18:36:08 | 44.60783 | 21.19570 | 87° | 20km/h | 28735m | 8.5m/s | -46.5°C | 0.0% | 0hPa | 5.5V | 00:00:00 | 00:00:00 | 00:00:00 | |
| LZ4TU-5 | 2026-09-05 18:34:51 | 44.60777 | 21.19310 | 123° | 13km/h | 28171m | 6.4m/s | -47.5°C | 0.0% | 0hPa | 5.5V | 00:00:00 | 00:00:00 | 00:00:00 | |
| LZ4TU-5 | 2026-09-05 18:34:47 | 44.60788 | 21.19289 | 109° | 27km/h | 28144m | 7.1m/s | -47.4°C | 0.0% | 0hPa | 5.5V | 00:00:00 | 00:00:00 | 00:00:00 | |
| LZ4TU-5 | 2026-09-05 18:33:30 | 44.60842 | 21.19133 | 185° | 24km/h | 27651m | 4.9m/s | -48.5°C | 0.0% | 0hPa | 5.5V | 00:00:00 | 00:00:00 | 00:00:00 | |
| LZ4TU-5 | 2026-09-05 18:33:25 | 44.60856 | 21.19108 | 115° | 27km/h | 27618m | 5.7m/s | -48.9°C | 0.0% | 0hPa | 5.5V | 00:00:00 | 00:00:00 | 00:00:00 | |
| LZ4TU-5 | 2026-09-05 18:32:10 | 44.61034 | 21.18791 | 112° | 24km/h | 27130m | 5.7m/s | -50.3°C | 0.0% | 0hPa | 5.5V | 00:00:00 | 00:00:00 | 00:00:00 | |
| LZ4TU-5 | 2026-09-05 18:32:04 | 44.61047 | 21.18771 | 118° | 11km/h | 27096m | 8.0m/s | -50.1°C | 0.0% | 0hPa | 5.5V | 00:00:00 | 00:00:00 | 00:00:00 | |
| LZ4TU-5 | 2026-09-05 18:30:46 | 44.61090 | 21.18482 | 155° | 13km/h | 26563m | 7.2m/s | -49.8°C | 0.0% | 0hPa | 5.5V | 00:00:00 | 00:00:00 | 00:00:00 | |
| LZ4TU-5 | 2026-09-05 18:30:41 | 44.61093 | 21.18480 | 105° | 2km/h | 26528m | 8.3m/s | -49.9°C | 0.0% | 0hPa | 5.5V | 00:00:00 | 00:00:00 | 00:00:00 | |
| LZ4TU-5 | 2026-09-05 18:29:17 | 44.60929 | 21.18504 | 247° | 29km/h | 25964m | 7.9m/s | -50.3°C | 0.0% | 0hPa | 5.5V | 00:00:00 | 00:00:00 | 00:00:00 | |
| LZ4TU-5 | 2026-09-05 18:29:13 | 44.60947 | 21.18534 | 238° | 15km/h | 25942m | 4.3m/s | -50.2°C | 0.0% | 0hPa | 5.5V | 00:00:00 | 00:00:00 | 00:00:00 | |
| OM5KV | 2026-09-05 18:28:32 | 44.61025 | 21.18563 | 156° | 11km/h | 25678m | 7.8m/s | -50.0°C | 0.0% | 0hPa | 5.5V | 00:00:00 | 00:00:00 | 00:00:00 | |
| OM5KV | 2026-09-05 18:28:25 | 44.61057 | 21.18553 | 139° | 20km/h | 25636m | 6.5m/s | -49.8°C | 0.0% | 0hPa | 5.5V | 00:00:00 | 00:00:00 | 00:00:00 | |
| OM5KV | 2026-09-05 18:28:20 | 44.61059 | 21.18535 | 97° | 11km/h | 25603m | 5.1m/s | -49.6°C | 0.0% | 0hPa | 5.5V | 00:00:00 | 00:00:00 | 00:00:00 | |
| OM5KV | 2026-09-05 18:28:14 | 44.61071 | 21.18525 | 129° | 15km/h | 25565m | 6.9m/s | -49.5°C | 0.0% | 0hPa | 5.5V | 00:00:00 | 00:00:00 | 00:00:00 | |
| OE3JTB-15 | 2026-09-05 18:28:09 | 44.61071 | 21.18495 | 101° | 11km/h | 25533m | 6.1m/s | -48.8°C | 0% | 0hPa | 5.5V | 00:00:00 | 00:00:00 | 00:00:00 | |
| OM5KV | 2026-09-05 18:28:03 | 44.61080 | 21.18490 | 30° | 4km/h | 25497m | 5.0m/s | -49.3°C | 0.0% | 0hPa | 5.5V | 00:00:00 | 00:00:00 | 00:00:00 | |
| LZ4TU-5 | 2026-09-05 18:27:56 | 44.61069 | 21.18454 | 1° | 9km/h | 25452m | 6.1m/s | -49.4°C | 0.0% | 0hPa | 5.5V | 00:00:00 | 00:00:00 | 00:00:00 | |
| LZ4TU-5 | 2026-09-05 18:27:51 | 44.61064 | 21.18453 | 0° | 0km/h | 25418m | 5.9m/s | -49.1°C | 0.0% | 0hPa | 5.5V | 00:00:00 | 00:00:00 | 00:00:00 | |
| OE3JTB-15 | 2026-09-05 18:27:40 | 44.61048 | 21.18430 | 17° | 18km/h | 25349m | 6.8m/s | -48.1°C | 0% | 0hPa | 5.5V | 00:00:00 | 00:00:00 | 00:00:00 | |
| OM5KV | 2026-09-05 18:27:39 | 44.61046 | 21.18430 | 23° | 9km/h | 25342m | 7.5m/s | -48.6°C | 0.0% | 0hPa | 5.5V | 00:00:00 | 00:00:00 | 00:00:00 | |
| OM5KV | 2026-09-05 18:27:36 | 44.61042 | 21.18419 | 62° | 16km/h | 25322m | 5.7m/s | -48.6°C | 0.0% | 0hPa | 5.5V | 00:00:00 | 00:00:00 | 00:00:00 | |
| OM5KV | 2026-09-05 18:27:30 | 44.61018 | 21.18416 | 1° | 11km/h | 25282m | 6.8m/s | -48.4°C | 0.0% | 0hPa | 5.5V | 00:00:00 | 00:00:00 | 00:00:00 | |
| OM5KV | 2026-09-05 18:27:28 | 44.61014 | 21.18412 | 62° | 13km/h | 25269m | 6.1m/s | -48.4°C | 0.0% | 0hPa | 5.5V | 00:00:00 | 00:00:00 | 00:00:00 | |
| OM5KV | 2026-09-05 18:27:24 | 44.60999 | 21.18406 | 340° | 16km/h | 25242m | 8.0m/s | -48.3°C | 0.0% | 0hPa | 5.5V | 00:00:00 | 00:00:00 | 00:00:00 | |
| OM5KV | 2026-09-05 18:27:19 | 44.60980 | 21.18419 | 17° | 20km/h | 25211m | 5.4m/s | -48.2°C | 0.0% | 0hPa | 5.5V | 00:00:00 | 00:00:00 | 00:00:00 | |
| OM5KV | 2026-09-05 18:27:15 | 44.60968 | 21.18409 | 23° | 9km/h | 25185m | 5.4m/s | -48.2°C | 0.0% | 0hPa | 5.5V | 00:00:00 | 00:00:00 | 00:00:00 | |
| OM5KV | 2026-09-05 18:27:14 | 44.60965 | 21.18408 | 4° | 16km/h | 25179m | 6.4m/s | -48.2°C | 0.0% | 0hPa | 5.5V | 00:00:00 | 00:00:00 | 00:00:00 | |
| OM5KV | 2026-09-05 18:27:08 | 44.60935 | 21.18441 | 329° | 15km/h | 25138m | 7.6m/s | -48.1°C | 0.0% | 0hPa | 5.5V | 00:00:00 | 00:00:00 | 00:00:00 | |
| OM5KV | 2026-09-05 18:27:04 | 44.60930 | 21.18430 | 108° | 13km/h | 25110m | 7.2m/s | -48.1°C | 0.0% | 0hPa | 5.5V | 00:00:00 | 00:00:00 | 00:00:00 | |
| OM5KV | 2026-09-05 18:26:58 | 44.60917 | 21.18434 | 325° | 20km/h | 25073m | 5.2m/s | -48.2°C | 0.0% | 0hPa | 5.5V | 00:00:00 | 00:00:00 | 00:00:00 | |
| OM5KV | 2026-09-05 18:26:55 | 44.60918 | 21.18443 | 173° | 18km/h | 25053m | 6.7m/s | -48.3°C | 0.0% | 0hPa | 5.5V | 00:00:00 | 00:00:00 | 00:00:00 | |
| OM5KV | 2026-09-05 18:26:49 | 44.60930 | 21.18431 | 316° | 13km/h | 25012m | 7.9m/s | -48.4°C | 0.0% | 0hPa | 5.5V | 00:00:00 | 00:00:00 | 00:00:00 | |
| OM5KV | 2026-09-05 18:26:45 | 44.60920 | 21.18440 | 192° | 2km/h | 24987m | 6.3m/s | -48.6°C | 0.0% | 0hPa | 5.5V | 00:00:00 | 00:00:00 | 00:00:00 | |
| OM5KV | 2026-09-05 18:26:43 | 44.60926 | 21.18440 | 167° | 24km/h | 24974m | 5.5m/s | -48.7°C | 0.0% | 0hPa | 5.5V | 00:00:00 | 00:00:00 | 00:00:00 | |
| OM5KV | 2026-09-05 18:26:33 | 44.60938 | 21.18423 | 187° | 5km/h | 24906m | 8.0m/s | -49.2°C | 0.0% | 0hPa | 5.5V | 00:00:00 | 00:00:00 | 00:00:00 | |
| LZ4TU-5 | 2026-09-05 18:26:29 | 44.60957 | 21.18402 | 123° | 24km/h | 24882m | 6.6m/s | -49.5°C | 0.0% | 0hPa | 5.5V | 00:00:00 | 00:00:00 | 00:00:00 | |
| OM5KV | 2026-09-05 18:26:28 | 44.60958 | 21.18396 | 85° | 16km/h | 24876m | 6.6m/s | -49.8°C | 0.0% | 0hPa | 5.5V | 00:00:00 | 00:00:00 | 00:00:00 | |
| OM5KV | 2026-09-05 18:26:25 | 44.60947 | 21.18392 | 330° | 18km/h | 24855m | 7.2m/s | -50.1°C | 0.0% | 0hPa | 5.5V | 00:00:00 | 00:00:00 | 00:00:00 | |
| OM5KV | 2026-09-05 18:26:23 | 44.60942 | 21.18400 | 284° | 11km/h | 24843m | 5.4m/s | -50.2°C | 0.0% | 0hPa | 5.5V | 00:00:00 | 00:00:00 | 00:00:00 | |
| OM5KV | 2026-09-05 18:26:20 | 44.60942 | 21.18403 | 69° | 5km/h | 24822m | 6.1m/s | -50.3°C | 0.0% | 0hPa | 5.5V | 00:00:00 | 00:00:00 | 00:00:00 | |
| OM5KV | 2026-09-05 18:26:11 | 44.60937 | 21.18405 | 279° | 11km/h | 24761m | 6.6m/s | -50.4°C | 0.0% | 0hPa | 5.5V | 00:00:00 | 00:00:00 | 00:00:00 | |
| OM5KV | 2026-09-05 18:26:05 | 44.60943 | 21.18408 | 159° | 9km/h | 24723m | 7.7m/s | -50.7°C | 0.0% | 0hPa | 5.5V | 00:00:00 | 00:00:00 | 00:00:00 | |
| OM5KV | 2026-09-05 18:25:59 | 44.60946 | 21.18408 | 308° | 16km/h | 24684m | 6.6m/s | -51.2°C | 0.0% | 0hPa | 5.5V | 00:00:00 | 00:00:00 | 00:00:00 | |
| OM5KV | 2026-09-05 18:25:58 | 44.60943 | 21.18413 | 292° | 13km/h | 24678m | 6.7m/s | -51.4°C | 0.0% | 0hPa | 5.5V | 00:00:00 | 00:00:00 | 00:00:00 | |
| OM5KV | 2026-09-05 18:25:51 | 44.60959 | 21.18414 | 150° | 9km/h | 24630m | 8.2m/s | -51.7°C | 0.0% | 0hPa | 5.5V | 00:00:00 | 00:00:00 | 00:00:00 | |
| OM5KV | 2026-09-05 18:25:43 | 44.60968 | 21.18413 | 176° | 20km/h | 24578m | 7.4m/s | -51.8°C | 0.0% | 0hPa | 5.5V | 00:00:00 | 00:00:00 | 00:00:00 | |
| OM5KV | 2026-09-05 18:25:34 | 44.60995 | 21.18386 | 238° | 5km/h | 24518m | 8.1m/s | -52.0°C | 0.0% | 0hPa | 5.5V | 00:00:00 | 00:00:00 | 00:00:00 | |
| OM5KV | 2026-09-05 18:25:32 | 44.61001 | 21.18396 | 222° | 27km/h | 24506m | 4.6m/s | -52.0°C | 0.0% | 0hPa | 5.5V | 00:00:00 | 00:00:00 | 00:00:00 | |
| OM5KV | 2026-09-05 18:25:29 | 44.61018 | 21.18399 | 143° | 26km/h | 24487m | 5.8m/s | -52.0°C | 0.0% | 0hPa | 5.5V | 00:00:00 | 00:00:00 | 00:00:00 | |
| OM5KV | 2026-09-05 18:25:25 | 44.61020 | 21.18374 | 53° | 15km/h | 24460m | 6.0m/s | -52.1°C | 0.0% | 0hPa | 5.5V | 00:00:00 | 00:00:00 | 00:00:00 | |
| OM5KV | 2026-09-05 18:25:19 | 44.61040 | 21.18389 | 194° | 27km/h | 24421m | 6.2m/s | -52.1°C | 0.0% | 0hPa | 5.5V | 00:00:00 | 00:00:00 | 00:00:00 | |
| OM5KV | 2026-09-05 18:25:18 | 44.61047 | 21.18388 | 164° | 26km/h | 24414m | 7.0m/s | -52.1°C | 0.0% | 0hPa | 5.5V | 00:00:00 | 00:00:00 | 00:00:00 | |
| OM5KV | 2026-09-05 18:25:13 | 44.61052 | 21.18358 | 65° | 11km/h | 24381m | 6.9m/s | -52.1°C | 0.0% | 0hPa | 5.5V | 00:00:00 | 00:00:00 | 00:00:00 | |
| OM5KV | 2026-09-05 18:25:07 | 44.61066 | 21.18374 | 186° | 22km/h | 24343m | 7.1m/s | -52.2°C | 0.0% | 0hPa | 5.5V | 00:00:00 | 00:00:00 | 00:00:00 | |
| LZ4TU-5 | 2026-09-05 18:25:04 | 44.61079 | 21.18356 | 103° | 27km/h | 24324m | 5.6m/s | -52.2°C | 0.0% | 0hPa | 5.5V | 00:00:00 | 00:00:00 | 00:00:00 | |
| OM5KV | 2026-09-05 18:25:02 | 44.61078 | 21.18342 | 54° | 13km/h | 24311m | 6.4m/s | -52.3°C | 0.0% | 0hPa | 5.5V | 00:00:00 | 00:00:00 | 00:00:00 | |
| OM5KV | 2026-09-05 18:25:01 | 44.61077 | 21.18340 | 355° | 5km/h | 24304m | 6.5m/s | -52.3°C | 0.0% | 0hPa | 5.5V | 00:00:00 | 00:00:00 | 00:00:00 | |
| LZ4TU-5 | 2026-09-05 18:24:59 | 44.61077 | 21.18343 | 210° | 9km/h | 24291m | 5.8m/s | -52.4°C | 0.0% | 0hPa | 5.5V | 00:00:00 | 00:00:00 | 00:00:00 | |
| OM5KV | 2026-09-05 18:24:57 | 44.61083 | 21.18345 | 179° | 16km/h | 24279m | 5.8m/s | -52.5°C | 0.0% | 0hPa | 5.5V | 00:00:00 | 00:00:00 | 00:00:00 | |
| OM5KV | 2026-09-05 18:24:55 | 44.61092 | 21.18341 | 145° | 18km/h | 24268m | 5.2m/s | -52.6°C | 0.0% | 0hPa | 5.5V | 00:00:00 | 00:00:00 | 00:00:00 | |
| OM5KV | 2026-09-05 18:24:43 | 44.61101 | 21.18266 | 91° | 16km/h | 24194m | 5.6m/s | -52.6°C | 0.0% | 0hPa | 5.5V | 00:00:00 | 00:00:00 | 00:00:00 | |
| OM5KV | 2026-09-05 18:24:40 | 44.61095 | 21.18243 | 56° | 20km/h | 24174m | 6.8m/s | -52.5°C | 0.0% | 0hPa | 5.5V | 00:00:00 | 00:00:00 | 00:00:00 | |
| OM5KV | 2026-09-05 18:24:37 | 44.61082 | 21.18231 | 28° | 18km/h | 24154m | 6.5m/s | -52.6°C | 0.0% | 0hPa | 5.5V | 00:00:00 | 00:00:00 | 00:00:00 | |
| OM5KV | 2026-09-05 18:24:33 | 44.61083 | 21.18223 | 169° | 13km/h | 24129m | 4.8m/s | -52.7°C | 0.0% | 0hPa | 5.5V | 00:00:00 | 00:00:00 | 00:00:00 | |
| OM5KV | 2026-09-05 18:24:31 | 44.61086 | 21.18219 | 79° | 9km/h | 24116m | 6.5m/s | -52.7°C | 0.0% | 0hPa | 5.5V | 00:00:00 | 00:00:00 | 00:00:00 | |
| OM5KV | 2026-09-05 18:24:27 | 44.61072 | 21.18206 | 7° | 16km/h | 24091m | 7.0m/s | -52.7°C | 0.0% | 0hPa | 5.5V | 00:00:00 | 00:00:00 | 00:00:00 | |
| OM5KV | 2026-09-05 18:24:25 | 44.61068 | 21.18206 | 0° | 0km/h | 24079m | 7.2m/s | -52.6°C | 0.0% | 0hPa | 5.5V | 00:00:00 | 00:00:00 | 00:00:00 | |
| OM5KV | 2026-09-05 18:24:21 | 44.61074 | 21.18211 | 197° | 15km/h | 24053m | 7.4m/s | -52.6°C | 0.0% | 0hPa | 5.5V | 00:00:00 | 00:00:00 | 00:00:00 | |
| OM5KV | 2026-09-05 18:24:14 | 44.61074 | 21.18222 | 286° | 9km/h | 24009m | 5.4m/s | -53.0°C | 0.0% | 0hPa | 5.5V | 00:00:00 | 00:00:00 | 00:00:00 | |
| OM5KV | 2026-09-05 18:24:08 | 44.61092 | 21.18239 | 210° | 18km/h | 23970m | 5.6m/s | -52.9°C | 0.0% | 0hPa | 5.5V | 00:00:00 | 00:00:00 | 00:00:00 | |
| OM5KV | 2026-09-05 18:24:07 | 44.61095 | 21.18243 | 243° | 16km/h | 23966m | 4.8m/s | -52.9°C | 0.0% | 0hPa | 5.5V | 00:00:00 | 00:00:00 | 00:00:00 | |
| OM5KV | 2026-09-05 18:24:01 | 44.61096 | 21.18265 | 0° | 0km/h | 23925m | 5.6m/s | -52.7°C | 0.0% | 0hPa | 5.5V | 00:00:00 | 00:00:00 | 00:00:00 | |
| OM5KV | 2026-09-05 18:23:56 | 44.61106 | 21.18258 | 222° | 11km/h | 23894m | 8.7m/s | -52.7°C | 0.0% | 0hPa | 5.5V | 00:00:00 | 00:00:00 | 00:00:00 | |
| OM5KV | 2026-09-05 18:23:51 | 44.61102 | 21.18276 | 48° | 7km/h | 23862m | 6.4m/s | -52.8°C | 0.0% | 0hPa | 5.5V | 00:00:00 | 00:00:00 | 00:00:00 | |
| OM5KV | 2026-09-05 18:23:46 | 44.61093 | 21.18254 | 78° | 15km/h | 23830m | 8.4m/s | -52.9°C | 0.0% | 0hPa | 5.5V | 00:00:00 | 00:00:00 | 00:00:00 | |
| OM5KV | 2026-09-05 18:23:45 | 44.61092 | 21.18249 | 66° | 11km/h | 23826m | 3.1m/s | -52.9°C | 0.0% | 0hPa | 5.5V | 00:00:00 | 00:00:00 | 00:00:00 | |
| OM5KV | 2026-09-05 18:23:40 | 44.61082 | 21.18251 | 6° | 13km/h | 23792m | 7.7m/s | -52.8°C | 0.0% | 0hPa | 5.5V | 00:00:00 | 00:00:00 | 00:00:00 | |
| OM5KV | 2026-09-05 18:23:34 | 44.61062 | 21.18234 | 46° | 9km/h | 23757m | 4.8m/s | -52.8°C | 0.0% | 0hPa | 5.5V | 00:00:00 | 00:00:00 | 00:00:00 | |
| OM5KV | 2026-09-05 18:23:33 | 44.61060 | 21.18233 | 353° | 4km/h | 23751m | 6.3m/s | -52.8°C | 0.0% | 0hPa | 5.5V | 00:00:00 | 00:00:00 | 00:00:00 | |
| OM5KV | 2026-09-05 18:23:28 | 44.61046 | 21.18247 | 355° | 22km/h | 23720m | 4.5m/s | -53.0°C | 0.0% | 0hPa | 5.5V | 00:00:00 | 00:00:00 | 00:00:00 | |
| OM5KV | 2026-09-05 18:23:27 | 44.61040 | 21.18248 | 352° | 20km/h | 23713m | 7.3m/s | -52.9°C | 0.0% | 0hPa | 5.5V | 00:00:00 | 00:00:00 | 00:00:00 | |
| OM5KV | 2026-09-05 18:23:22 | 44.61025 | 21.18247 | 0° | 0km/h | 23681m | 7.4m/s | -52.8°C | 0.0% | 0hPa | 5.5V | 00:00:00 | 00:00:00 | 00:00:00 | |
| OM5KV | 2026-09-05 18:23:21 | 44.61026 | 21.18249 | 233° | 13km/h | 23674m | 7.0m/s | -52.8°C | 0.0% | 0hPa | 5.5V | 00:00:00 | 00:00:00 | 00:00:00 | |
| OM5KV | 2026-09-05 18:23:04 | 44.61032 | 21.18297 | 311° | 16km/h | 23568m | 5.9m/s | -52.6°C | 0.0% | 0hPa | 5.5V | 00:00:00 | 00:00:00 | 00:00:00 | |
| OM5KV | 2026-09-05 18:22:59 | 44.61040 | 21.18312 | 184° | 27km/h | 23535m | 7.8m/s | -52.6°C | 0.0% | 0hPa | 5.5V | 00:00:00 | 00:00:00 | 00:00:00 | |
| OM5KV | 2026-09-05 18:22:58 | 44.61047 | 21.18312 | 186° | 24km/h | 23529m | 6.2m/s | -52.6°C | 0.0% | 0hPa | 5.5V | 00:00:00 | 00:00:00 | 00:00:00 | |
| OM5KV | 2026-09-05 18:22:53 | 44.61070 | 21.18325 | 223° | 16km/h | 23496m | 7.2m/s | -52.7°C | 0.0% | 0hPa | 5.5V | 00:00:00 | 00:00:00 | 00:00:00 | |
| OM5KV | 2026-09-05 18:22:48 | 44.61087 | 21.18343 | 202° | 35km/h | 23465m | 5.8m/s | -52.9°C | 0.0% | 0hPa | 5.5V | 00:00:00 | 00:00:00 | 00:00:00 | |
| OM5KV | 2026-09-05 18:22:47 | 44.61096 | 21.18347 | 198° | 37km/h | 23459m | 6.3m/s | -52.9°C | 0.0% | 0hPa | 5.5V | 00:00:00 | 00:00:00 | 00:00:00 | |
| OM5KV | 2026-09-05 18:22:41 | 44.61132 | 21.18371 | 207° | 22km/h | 23423m | 4.8m/s | -53.0°C | 0.0% | 0hPa | 5.5V | 00:00:00 | 00:00:00 | 00:00:00 | |
| OM5KV | 2026-09-05 18:22:35 | 44.61168 | 21.18379 | 196° | 37km/h | 23385m | 6.7m/s | -53.2°C | 0.0% | 0hPa | 5.5V | 00:00:00 | 00:00:00 | 00:00:00 | |
| OM5KV | 2026-09-05 18:22:29 | 44.61218 | 21.18373 | 166° | 26km/h | 23347m | 5.8m/s | -53.1°C | 0.0% | 0hPa | 5.5V | 00:00:00 | 00:00:00 | 00:00:00 | |
| OM5KV | 2026-09-05 18:22:24 | 44.61247 | 21.18361 | 178° | 29km/h | 23316m | 7.1m/s | -53.1°C | 0.0% | 0hPa | 5.5V | 00:00:00 | 00:00:00 | 00:00:00 | |
| OM5KV | 2026-09-05 18:22:23 | 44.61256 | 21.18361 | 185° | 33km/h | 23310m | 6.5m/s | -53.0°C | 0.0% | 0hPa | 5.5V | 00:00:00 | 00:00:00 | 00:00:00 | |
| LZ4TU-5 | 2026-09-05 18:22:21 | 44.61275 | 21.18363 | 178° | 40km/h | 23299m | 5.6m/s | -53.1°C | 0.0% | 0hPa | 5.5V | 00:00:00 | 00:00:00 | 00:00:00 | |
| OM5KV | 2026-09-05 18:22:18 | 44.61296 | 21.18348 | 130° | 26km/h | 23280m | 6.5m/s | -53.1°C | 0.0% | 0hPa | 5.5V | 00:00:00 | 00:00:00 | 00:00:00 | |
| OM5KV | 2026-09-05 18:22:17 | 44.61301 | 21.18341 | 133° | 22km/h | 23273m | 7.0m/s | -53.1°C | 0.0% | 0hPa | 5.5V | 00:00:00 | 00:00:00 | 00:00:00 | |
| LZ4TU-5 | 2026-09-05 18:22:16 | 44.61305 | 21.18337 | 147° | 20km/h | 23268m | 5.1m/s | -53.1°C | 0.0% | 0hPa | 5.5V | 00:00:00 | 00:00:00 | 00:00:00 | |
| OM5KV | 2026-09-05 18:22:13 | 44.61322 | 21.18327 | 163° | 33km/h | 23250m | 5.9m/s | -53.0°C | 0.0% | 0hPa | 5.5V | 00:00:00 | 00:00:00 | 00:00:00 | |
| OM5KV | 2026-09-05 18:22:11 | 44.61340 | 21.18321 | 173° | 40km/h | 23238m | 5.2m/s | -52.9°C | 0.0% | 0hPa | 5.5V | 00:00:00 | 00:00:00 | 00:00:00 | |
| OM5KV | 2026-09-05 18:22:07 | 44.61374 | 21.18312 | 147° | 31km/h | 23214m | 7.3m/s | -52.9°C | 0.0% | 0hPa | 5.5V | 00:00:00 | 00:00:00 | 00:00:00 | |
| OM5KV | 2026-09-05 18:22:05 | 44.61383 | 21.18297 | 115° | 26km/h | 23201m | 7.4m/s | -52.9°C | 0.0% | 0hPa | 5.5V | 00:00:00 | 00:00:00 | 00:00:00 | |
| OM5KV | 2026-09-05 18:22:01 | 44.61395 | 21.18271 | 143° | 27km/h | 23175m | 6.3m/s | -52.9°C | 0.0% | 0hPa | 5.5V | 00:00:00 | 00:00:00 | 00:00:00 | |
| OM5KV | 2026-09-05 18:22:00 | 44.61401 | 21.18266 | 155° | 29km/h | 23169m | 6.9m/s | -52.8°C | 0.0% | 0hPa | 5.5V | 00:00:00 | 00:00:00 | 00:00:00 | |
| OM5KV | 2026-09-05 18:21:56 | 44.61428 | 21.18249 | 140° | 31km/h | 23143m | 6.7m/s | -52.9°C | 0.0% | 0hPa | 5.5V | 00:00:00 | 00:00:00 | 00:00:00 | |
| OM5KV | 2026-09-05 18:21:54 | 44.61436 | 21.18230 | 107° | 31km/h | 23133m | 5.4m/s | -52.8°C | 0.0% | 0hPa | 5.5V | 00:00:00 | 00:00:00 | 00:00:00 | |
| OM5KV | 2026-09-05 18:21:50 | 44.61438 | 21.18201 | 110° | 16km/h | 23108m | 6.4m/s | -52.9°C | 0.0% | 0hPa | 5.5V | 00:00:00 | 00:00:00 | 00:00:00 | |
| OM5KV | 2026-09-05 18:21:48 | 44.61443 | 21.18189 | 132° | 24km/h | 23097m | 5.1m/s | -53.1°C | 0.0% | 0hPa | 5.5V | 00:00:00 | 00:00:00 | 00:00:00 | |
| OM5KV | 2026-09-05 18:21:44 | 44.61454 | 21.18163 | 97° | 22km/h | 23073m | 6.0m/s | -53.3°C | 0.0% | 0hPa | 5.5V | 00:00:00 | 00:00:00 | 00:00:00 | |
| OM5KV | 2026-09-05 18:21:38 | 44.61453 | 21.18113 | 103° | 16km/h | 23030m | 6.4m/s | -53.6°C | 0.0% | 0hPa | 5.5V | 00:00:00 | 00:00:00 | 00:00:00 | |
| OM5KV | 2026-09-05 18:21:32 | 44.61457 | 21.18079 | 86° | 26km/h | 23000m | 7.1m/s | -54.2°C | 0.0% | 0hPa | 5.5V | 00:00:00 | 00:00:00 | 00:00:00 | |
| OM5KV | 2026-09-05 18:21:31 | 44.61456 | 21.18069 | 86° | 31km/h | 22994m | 5.8m/s | -54.2°C | 0.0% | 0hPa | 5.5V | 00:00:00 | 00:00:00 | 00:00:00 | |
| OM5KV | 2026-09-05 18:21:27 | 44.61449 | 21.18034 | 52° | 15km/h | 22972m | 5.4m/s | -54.3°C | 0.0% | 0hPa | 5.5V | 00:00:00 | 00:00:00 | 00:00:00 | |
| OM5KV | 2026-09-05 18:21:25 | 44.61445 | 21.18028 | 79° | 9km/h | 22961m | 5.7m/s | -54.4°C | 0.0% | 0hPa | 5.5V | 00:00:00 | 00:00:00 | 00:00:00 | |
| OM5KV | 2026-09-05 18:21:19 | 44.61445 | 21.17990 | 97° | 22km/h | 22924m | 6.2m/s | -54.4°C | 0.0% | 0hPa | 5.5V | 00:00:00 | 00:00:00 | 00:00:00 | |
| OM5KV | 2026-09-05 18:21:16 | 44.61448 | 21.17971 | 105° | 11km/h | 22907m | 7.3m/s | -54.5°C | 0.0% | 0hPa | 5.5V | 00:00:00 | 00:00:00 | 00:00:00 | |
| OM5KV | 2026-09-05 18:21:14 | 44.61448 | 21.17967 | 77° | 7km/h | 22896m | 5.8m/s | -54.5°C | 0.0% | 0hPa | 5.5V | 00:00:00 | 00:00:00 | 00:00:00 | |
| OM5KV | 2026-09-05 18:21:10 | 44.61450 | 21.17944 | 113° | 18km/h | 22871m | 6.1m/s | -54.4°C | 0.0% | 0hPa | 5.5V | 00:00:00 | 00:00:00 | 00:00:00 | |
| OM5KV | 2026-09-05 18:21:07 | 44.61459 | 21.17922 | 125° | 27km/h | 22853m | 4.6m/s | -54.5°C | 0.0% | 0hPa | 5.5V | 00:00:00 | 00:00:00 | 00:00:00 | |
| OM5KV | 2026-09-05 18:21:05 | 44.61466 | 21.17910 | 139° | 16km/h | 22840m | 7.9m/s | -54.6°C | 0.0% | 0hPa | 5.5V | 00:00:00 | 00:00:00 | 00:00:00 | |
| OM5KV | 2026-09-05 18:21:01 | 44.61474 | 21.17900 | 106° | 16km/h | 22817m | 5.2m/s | -54.6°C | 0.0% | 0hPa | 5.5V | 00:00:00 | 00:00:00 | 00:00:00 | |
| OM5KV | 2026-09-05 18:20:58 | 44.61478 | 21.17879 | 126° | 22km/h | 22799m | 6.5m/s | -54.7°C | 0.0% | 0hPa | 5.5V | 00:00:00 | 00:00:00 | 00:00:00 | |
| OM5KV | 2026-09-05 18:20:56 | 44.61486 | 21.17869 | 143° | 20km/h | 22788m | 5.6m/s | -54.7°C | 0.0% | 0hPa | 5.5V | 00:00:00 | 00:00:00 | 00:00:00 | |
| LZ4TU-5 | 2026-09-05 18:20:53 | 44.61494 | 21.17854 | 122° | 16km/h | 22770m | 6.2m/s | -54.6°C | 0.0% | 0hPa | 5.5V | 00:00:00 | 00:00:00 | 00:00:00 | |
| OM5KV | 2026-09-05 18:20:52 | 44.61496 | 21.17850 | 129° | 13km/h | 22763m | 6.4m/s | -54.5°C | 0.0% | 0hPa | 5.5V | 00:00:00 | 00:00:00 | 00:00:00 | |
| OM5KV | 2026-09-05 18:20:47 | 44.61494 | 21.17833 | 70° | 15km/h | 22736m | 4.4m/s | -54.5°C | 69.1% | 0hPa | 5.5V | 00:00:00 | 00:00:00 | 00:00:00 | |
| OM5KV | 2026-09-05 18:20:43 | 44.61506 | 21.17813 | 141° | 27km/h | 22710m | 6.4m/s | -54.5°C | 0.0% | 0hPa | 5.5V | 00:00:00 | 00:00:00 | 00:00:00 | |
| OM5KV | 2026-09-05 18:20:41 | 44.61515 | 21.17797 | 123° | 27km/h | 22698m | 5.6m/s | -54.4°C | 0.0% | 0hPa | 5.5V | 00:00:00 | 00:00:00 | 00:00:00 | |
| OM5KV | 2026-09-05 18:20:36 | 44.61518 | 21.17765 | 71° | 18km/h | 22668m | 4.6m/s | -54.3°C | 0.0% | 0hPa | 5.5V | 00:00:00 | 00:00:00 | 00:00:00 | |
| OM5KV | 2026-09-05 18:20:31 | 44.61526 | 21.17736 | 123° | 29km/h | 22638m | 4.9m/s | -54.1°C | 0.0% | 0hPa | 5.5V | 00:00:00 | 00:00:00 | 00:00:00 | |
| OM5KV | 2026-09-05 18:20:30 | 44.61531 | 21.17727 | 127° | 31km/h | 22632m | 5.9m/s | -54.0°C | 0.0% | 0hPa | 5.5V | 00:00:00 | 00:00:00 | 00:00:00 | |
| OM5KV | 2026-09-05 18:20:25 | 44.61538 | 21.17686 | 44° | 22km/h | 22603m | 6.3m/s | -53.9°C | 0.0% | 0hPa | 5.5V | 00:00:00 | 00:00:00 | 00:00:00 | |
| OM5KV | 2026-09-05 18:20:19 | 44.61537 | 21.17665 | 111° | 20km/h | 22567m | 6.2m/s | -53.8°C | 0.0% | 0hPa | 5.5V | 00:00:00 | 00:00:00 | 00:00:00 | |
| OE3JTB-15 | 2026-09-05 18:20:14 | 44.61544 | 21.17632 | 144° | 15km/h | 22538m | 5.8m/s | -52.9°C | 0% | 0hPa | 5.5V | 00:00:00 | 00:00:00 | 00:00:00 | |
| OM5KV | 2026-09-05 18:20:08 | 44.61553 | 21.17606 | 127° | 24km/h | 22502m | 3.8m/s | -53.5°C | 0.0% | 0hPa | 5.5V | 00:00:00 | 00:00:00 | 00:00:00 | |
| OM5KV | 2026-09-05 18:20:02 | 44.61569 | 21.17582 | 180° | 11km/h | 22468m | 6.2m/s | -53.5°C | 0.0% | 0hPa | 5.5V | 00:00:00 | 00:00:00 | 00:00:00 | |
| OM5KV | 2026-09-05 18:19:56 | 44.61582 | 21.17560 | 118° | 18km/h | 22431m | 7.2m/s | -53.5°C | 0.0% | 0hPa | 5.5V | 00:00:00 | 00:00:00 | 00:00:00 | |
| OM5KV | 2026-09-05 18:19:50 | 44.61595 | 21.17539 | 144° | 16km/h | 22395m | 5.4m/s | -53.3°C | 0.0% | 0hPa | 5.5V | 00:00:00 | 00:00:00 | 00:00:00 | |
| OM5KV | 2026-09-05 18:19:49 | 44.61599 | 21.17535 | 131° | 15km/h | 22390m | 5.4m/s | -53.4°C | 0.0% | 0hPa | 5.5V | 00:00:00 | 00:00:00 | 00:00:00 | |
| OE3JTB-15 | 2026-09-05 18:19:43 | 44.61602 | 21.17503 | 104° | 16km/h | 22353m | 6.8m/s | -52.6°C | 0% | 0hPa | 5.5V | 00:00:00 | 00:00:00 | 00:00:00 | |
| LZ4TU-5 | 2026-09-05 18:19:36 | 44.61615 | 21.17468 | 73° | 13km/h | 22310m | 6.1m/s | -53.2°C | 0.0% | 0hPa | 5.6V | 00:00:00 | 00:00:00 | 00:00:00 | |
| LZ4TU-5 | 2026-09-05 18:19:31 | 44.61614 | 21.17447 | 72° | 11km/h | 22278m | 6.4m/s | -53.1°C | 0.0% | 0hPa | 5.6V | 00:00:00 | 00:00:00 | 00:00:00 | |
| OM5KV | 2026-09-05 18:19:27 | 44.61614 | 21.17431 | 121° | 18km/h | 22257m | 5.8m/s | -53.1°C | 0.0% | 0hPa | 5.6V | 00:00:00 | 00:00:00 | 00:00:00 | |
| GYPAP8-17 | 2026-09-05 18:19:25 | 44.61618 | 21.17418 | 98° | 20km/h | 22245m | 7.0m/s | -53.1°C | 0.0% | 0hPa | 5.6V | 00:00:00 | 00:00:00 | 00:00:00 | |
| OM5KV | 2026-09-05 18:19:21 | 44.61610 | 21.17396 | 49° | 11km/h | 22222m | 5.0m/s | -53.1°C | 0.0% | 0hPa | 5.6V | 00:00:00 | 00:00:00 | 00:00:00 | |
| OE3JTB-15 | 2026-09-05 18:19:14 | 44.61603 | 21.17361 | 117° | 15km/h | 22182m | 5.2m/s | -52.6°C | 0% | 0hPa | 5.6V | 00:00:00 | 00:00:00 | 00:00:00 | |
| OM5KV | 2026-09-05 18:19:10 | 44.61601 | 21.17343 | 37° | 15km/h | 22158m | 6.2m/s | -53.0°C | 0.0% | 0hPa | 5.6V | 00:00:00 | 00:00:00 | 00:00:00 | |
| OM5KV | 2026-09-05 18:19:05 | 44.61588 | 21.17328 | 61° | 22km/h | 22128m | 6.7m/s | -53.0°C | 0.0% | 0hPa | 5.6V | 00:00:00 | 00:00:00 | 00:00:00 | |
| GYPAP8-17 | 2026-09-05 18:18:30 | 44.61617 | 21.17199 | 104° | 26km/h | 21918m | 7.2m/s | -54.2°C | 0.0% | 0hPa | 5.6V | 00:00:00 | 00:00:00 | 00:00:00 | |
| LZ4TU-5 | 2026-09-05 18:18:14 | 44.61640 | 21.17072 | 112° | 31km/h | 21824m | 6.4m/s | -54.9°C | 0.0% | 0hPa | 5.6V | 00:00:00 | 00:00:00 | 00:00:00 | |
| LZ4TU-5 | 2026-09-05 18:18:10 | 44.61645 | 21.17046 | 74° | 13km/h | 21801m | 4.4m/s | -54.9°C | 0.0% | 0hPa | 5.6V | 00:00:00 | 00:00:00 | 00:00:00 | |
| GYPAP8-17 | 2026-09-05 18:17:52 | 44.61644 | 21.16931 | 85° | 22km/h | 21697m | 6.2m/s | -55.5°C | 0.0% | 0hPa | 5.6V | 00:00:00 | 00:00:00 | 00:00:00 | |
| LZ4TU-5 | 2026-09-05 18:16:51 | 44.61633 | 21.16520 | 105° | 18km/h | 21325m | 7.1m/s | -55.1°C | 0.2% | 0hPa | 5.6V | 00:00:00 | 00:00:00 | 00:00:00 | |
| LZ4TU-5 | 2026-09-05 18:16:47 | 44.61634 | 21.16509 | 34° | 13km/h | 21300m | 6.1m/s | -55.3°C | 0.2% | 0hPa | 5.6V | 00:00:00 | 00:00:00 | 00:00:00 | |
| LZ4TU-5 | 2026-09-05 18:15:29 | 44.61442 | 21.16383 | 289° | 11km/h | 20838m | 5.5m/s | -54.3°C | 0.4% | 0hPa | 5.6V | 00:00:00 | 00:00:00 | 00:00:00 | |
| LZ4TU-5 | 2026-09-05 18:15:24 | 44.61440 | 21.16375 | 77° | 16km/h | 20809m | 4.7m/s | -54.1°C | 0.3% | 0hPa | 5.6V | 00:00:00 | 00:00:00 | 00:00:00 | |
| OE3JTB-15 | 2026-09-05 18:14:34 | 44.61526 | 21.16224 | 92° | 22km/h | 20512m | 7.0m/s | -54.2°C | 0% | 0hPa | 5.6V | 00:00:00 | 00:00:00 | 00:00:00 | |
| LZ4TU-5 | 2026-09-05 18:14:01 | 44.61535 | 21.15983 | 69° | 13km/h | 20323m | 6.2m/s | -55.8°C | 0.6% | 0hPa | 5.6V | 00:00:00 | 00:00:00 | 00:00:00 | |
| OE3JTB-15 | 2026-09-05 18:14:00 | 44.61534 | 21.15980 | 69° | 11km/h | 20318m | 5.0m/s | -55.0°C | 0% | 0hPa | 5.6V | 00:00:00 | 00:00:00 | 00:00:00 | |
| OE3JTB-15 | 2026-09-05 18:13:30 | 44.61555 | 21.15852 | 140° | 26km/h | 20152m | 5.9m/s | -55.3°C | 0% | 0hPa | 5.7V | 00:00:00 | 00:00:00 | 00:00:00 | |
| LZ4TU-5 | 2026-09-05 18:12:44 | 44.61677 | 21.15680 | 170° | 24km/h | 19882m | 5.3m/s | -55.9°C | 0.5% | 0hPa | 5.7V | 00:00:00 | 00:00:00 | 00:00:00 | |
| LZ4TU-5 | 2026-09-05 18:12:39 | 44.61688 | 21.15669 | 97° | 15km/h | 19858m | 6.5m/s | -56.5°C | 0.6% | 0hPa | 5.7V | 00:00:00 | 00:00:00 | 00:00:00 | |
| LZ4TU-5 | 2026-09-05 18:11:20 | 44.61849 | 21.15172 | 145° | 20km/h | 19420m | 5.0m/s | -56.8°C | 1.0% | 0hPa | 5.7V | 00:00:00 | 00:00:00 | 00:00:00 | |
| LZ4TU-5 | 2026-09-05 18:11:16 | 44.61858 | 21.15143 | 104° | 24km/h | 19396m | 6.1m/s | -56.9°C | 1.0% | 0hPa | 5.7V | 00:00:00 | 00:00:00 | 00:00:00 | |
| LZ4TU-5 | 2026-09-05 18:09:59 | 44.62143 | 21.14277 | 83° | 31km/h | 18953m | 5.1m/s | -57.6°C | 1.4% | 0hPa | 5.7V | 00:00:00 | 00:00:00 | 00:00:00 | |
| LZ4TU-5 | 2026-09-05 18:09:54 | 44.62142 | 21.14229 | 88° | 29km/h | 18924m | 4.9m/s | -57.6°C | 1.5% | 0hPa | 5.7V | 00:00:00 | 00:00:00 | 00:00:00 | |
| OE3JTB-15 | 2026-09-05 18:09:04 | 44.62292 | 21.13500 | 115° | 44km/h | 18643m | 6.0m/s | -56.2°C | 0% | 0hPa | 5.7V | 00:00:00 | 00:00:00 | 00:00:00 | |
| LZ4TU-5 | 2026-09-05 18:08:36 | 44.62382 | 21.13089 | 92° | 40km/h | 18489m | 5.3m/s | -57.3°C | 0% | 0hPa | 5.7V | 00:00:00 | 00:00:00 | 00:00:00 | |
| OE3JTB-15 | 2026-09-05 18:08:32 | 44.62388 | 21.13030 | 110° | 44km/h | 18467m | 6.2m/s | -56.3°C | 0% | 0hPa | 5.7V | 00:00:00 | 00:00:00 | 00:00:00 | |
| LZ4TU-5 | 2026-09-05 18:08:31 | 44.62392 | 21.13016 | 112° | 40km/h | 18461m | 5.2m/s | -57.1°C | 2.2% | 0hPa | 0V | 00:00:00 | 00:00:00 | 00:00:00 | |
| LZ4TU-5 | 2026-09-05 18:07:10 | 44.62568 | 21.11758 | 92° | 55km/h | 18025m | 4.4m/s | -57.1°C | 2.6% | 0hPa | 0V | 00:00:00 | 00:00:00 | 00:00:00 | |
| LZ4TU-5 | 2026-09-05 18:05:55 | 44.62351 | 21.10436 | 74° | 42km/h | 17622m | 5.7m/s | -58.7°C | 3.4% | 0hPa | 0V | 00:00:00 | 00:00:00 | 00:00:00 | |
| LZ4TU-5 | 2026-09-05 18:05:51 | 44.62343 | 21.10369 | 82° | 57km/h | 17602m | 4.9m/s | -58.6°C | 3.4% | 0hPa | 0V | 00:00:00 | 00:00:00 | 00:00:00 | |
| LZ4TU-5 | 2026-09-05 18:04:36 | 44.62344 | 21.09057 | 94° | 60km/h | 17185m | 4.3m/s | -60.0°C | 4.1% | 0hPa | 0V | 00:00:00 | 00:00:00 | 00:00:00 | |
| LZ4TU-5 | 2026-09-05 18:04:31 | 44.62370 | 21.08969 | 120° | 49km/h | 17157m | 4.6m/s | -60.4°C | 3.8% | 0hPa | 0V | 00:00:00 | 00:00:00 | 00:00:00 | |
| LZ4TU-5 | 2026-09-05 18:04:26 | 44.62386 | 21.08870 | 94° | 62km/h | 17129m | 6.7m/s | -60.3°C | 3.9% | 0hPa | 0V | 00:00:00 | 00:00:00 | 00:00:00 | |
| LZ4TU-5 | 2026-09-05 18:03:11 | 44.62457 | 21.07178 | 84° | 60km/h | 16693m | 5.0m/s | -58.3°C | 4.7% | 0hPa | 0V | 00:00:00 | 00:00:00 | 00:00:00 | |
| LZ4TU-5 | 2026-09-05 18:03:06 | 44.62453 | 21.07062 | 86° | 71km/h | 16663m | 5.5m/s | -58.4°C | 4.7% | 0hPa | 0V | 00:00:00 | 00:00:00 | 00:00:00 | |
| LZ4TU-5 | 2026-09-05 18:01:53 | 44.62365 | 21.05489 | 102° | 51km/h | 16248m | 5.4m/s | -59.2°C | 6.6% | 0hPa | 0V | 00:00:00 | 00:00:00 | 00:00:00 | |
| LZ4TU-5 | 2026-09-05 18:01:48 | 44.62369 | 21.05394 | 91° | 58km/h | 16222m | 4.7m/s | -59.2°C | 6.8% | 0hPa | 0V | 00:00:00 | 00:00:00 | 00:00:00 | |
| LZ4TU-5 | 2026-09-05 18:00:30 | 44.62527 | 21.03804 | 94° | 66km/h | 15831m | 4.8m/s | -59.1°C | 8.1% | 0hPa | 0V | 00:00:00 | 00:00:00 | 00:00:00 | |
| LZ4TU-5 | 2026-09-05 17:59:16 | 44.62654 | 21.01952 | 90° | 75km/h | 15444m | 5.8m/s | -60.2°C | 10.2% | 0hPa | 0V | 00:00:00 | 00:00:00 | 00:00:00 | |
| LZ4TU-5 | 2026-09-05 17:59:11 | 44.62644 | 21.01819 | 84° | 75km/h | 15415m | 5.3m/s | -59.9°C | 10.3% | 0hPa | 0V | 00:00:00 | 00:00:00 | 00:00:00 | |
| LZ4TU-5 | 2026-09-05 17:57:59 | 44.62728 | 20.99952 | 91° | 75km/h | 14996m | 5.9m/s | -60.8°C | 13.1% | 0hPa | 0V | 00:00:00 | 00:00:00 | 00:00:00 | |
| LZ4TU-5 | 2026-09-05 17:57:54 | 44.62730 | 20.99814 | 95° | 77km/h | 14964m | 5.9m/s | -60.8°C | 13.4% | 0hPa | 0V | 00:00:00 | 00:00:00 | 00:00:00 | |
| LZ4TU-5 | 2026-09-05 17:57:20 | 44.62755 | 20.98904 | 89° | 78km/h | 14763m | 5.8m/s | -59.7°C | 15.1% | 0hPa | 0V | 00:00:00 | 00:00:00 | 00:00:00 | |
| LZ4TU-5 | 2026-09-05 17:57:16 | 44.62756 | 20.98797 | 95° | 75km/h | 14740m | 6.3m/s | -59.7°C | 15.3% | 0hPa | 0V | 00:00:00 | 00:00:00 | 00:00:00 | |
| LZ4TU-5 | 2026-09-05 17:56:31 | 44.62785 | 20.97534 | 89° | 78km/h | 14468m | 4.1m/s | -59.0°C | 20.1% | 0hPa | 0V | 00:00:00 | 00:00:00 | 00:00:00 | |
| LZ4TU-5 | 2026-09-05 17:56:26 | 44.62807 | 20.97401 | 101° | 88km/h | 14440m | 4.5m/s | -59.0°C | 21.0% | 0hPa | 0V | 00:00:00 | 00:00:00 | 00:00:00 | |
| LZ4TU-5 | 2026-09-05 17:55:53 | 44.62868 | 20.96410 | 104° | 71km/h | 14254m | 6.0m/s | -59.0°C | 27.0% | 0hPa | 0V | 00:00:00 | 00:00:00 | 00:00:00 | |
| LZ4TU-5 | 2026-09-05 17:55:03 | 44.63193 | 20.94715 | 102° | 120km/h | 13867m | 7.3m/s | -64.6°C | 33.2% | 0hPa | 0V | 00:00:00 | 00:00:00 | 00:00:00 | |
| LZ4TU-5 | 2026-09-05 17:54:58 | 44.63229 | 20.94519 | 111° | 122km/h | 13836m | 7.6m/s | -64.8°C | 33.2% | 0hPa | 0V | 00:00:00 | 00:00:00 | 00:00:00 | |
| LZ4TU-5 | 2026-09-05 17:54:25 | 44.63473 | 20.93356 | 109° | 106km/h | 13581m | 5.5m/s | -64.0°C | 32.3% | 0hPa | 0V | 00:00:00 | 00:00:00 | 00:00:00 | |
| LZ4TU-5 | 2026-09-05 17:54:21 | 44.63497 | 20.93229 | 96° | 80km/h | 13553m | 9.3m/s | -63.8°C | 32.1% | 0hPa | 0V | 00:00:00 | 00:00:00 | 00:00:00 | |
| LZ4TU-5 | 2026-09-05 17:53:34 | 44.63778 | 20.91994 | 130° | 89km/h | 13240m | 9.3m/s | -61.3°C | 30.0% | 0hPa | 0V | 00:00:00 | 00:00:00 | 00:00:00 | |
| LZ4TU-5 | 2026-09-05 17:53:29 | 44.63822 | 20.91901 | 100° | 57km/h | 13188m | 11.3m/s | -60.8°C | 29.8% | 0hPa | 0V | 00:00:00 | 00:00:00 | 00:00:00 | |
| LZ4TU-5 | 2026-09-05 17:52:56 | 44.64108 | 20.91055 | 149° | 78km/h | 12954m | 11.7m/s | -58.7°C | 29.7% | 0hPa | 0V | 00:00:00 | 00:00:00 | 00:00:00 | |
| LZ4TU-5 | 2026-09-05 17:52:52 | 44.64142 | 20.91014 | 116° | 49km/h | 12921m | 7.7m/s | -58.4°C | 29.8% | 0hPa | 0V | 00:00:00 | 00:00:00 | 00:00:00 | |
| LZ4TU-5 | 2026-09-05 17:52:03 | 44.64883 | 20.89823 | 148° | 117km/h | 12525m | 4.6m/s | -56.9°C | 32.2% | 0hPa | 0V | 00:00:00 | 00:00:00 | 00:00:00 | |
| LZ4TU-5 | 2026-09-05 17:51:27 | 44.65582 | 20.88899 | 133° | 89km/h | 12288m | 7.7m/s | -55.0°C | 31.9% | 0hPa | 0V | 00:00:00 | 00:00:00 | 00:00:00 | |
| LZ4TU-5 | 2026-09-05 17:51:22 | 44.65660 | 20.88766 | 136° | 115km/h | 12255m | 6.4m/s | -54.7°C | 32.1% | 0hPa | 0V | 00:00:00 | 00:00:00 | 00:00:00 | |
| LZ4TU-5 | 2026-09-05 17:50:31 | 44.66421 | 20.87332 | 134° | 120km/h | 11954m | 7.9m/s | -53.7°C | 37.3% | 0hPa | 0V | 00:00:00 | 00:00:00 | 00:00:00 | |
| LZ4TU-5 | 2026-09-05 17:50:27 | 44.66482 | 20.87223 | 109° | 89km/h | 11929m | 7.5m/s | -53.9°C | 37.7% | 0hPa | 0V | 00:00:00 | 00:00:00 | 00:00:00 | |
| LZ4TU-5 | 2026-09-05 17:49:54 | 44.67018 | 20.86225 | 109° | 110km/h | 11740m | 7.9m/s | -52.9°C | 37.1% | 0hPa | 0V | 00:00:00 | 00:00:00 | 00:00:00 | |
| LZ4TU-5 | 2026-09-05 17:49:49 | 44.67075 | 20.86036 | 127° | 108km/h | 11718m | 9.6m/s | -52.7°C | 36.9% | 0hPa | 0V | 00:00:00 | 00:00:00 | 00:00:00 | |
| LZ4TU-5 | 2026-09-05 17:49:03 | 44.67670 | 20.84574 | 107° | 104km/h | 11432m | 7.5m/s | -50.6°C | 36.5% | 0hPa | 0V | 00:00:00 | 00:00:00 | 00:00:00 | |
| LZ4TU-5 | 2026-09-05 17:49:00 | 44.67699 | 20.84445 | 115° | 95km/h | 11410m | 4.9m/s | -50.4°C | 36.7% | 0hPa | 0V | 00:00:00 | 00:00:00 | 00:00:00 | |
| LZ4TU-5 | 2026-09-05 17:48:26 | 44.67980 | 20.83287 | 106° | 102km/h | 11236m | 4.3m/s | -49.6°C | 40.6% | 0hPa | 0V | 00:00:00 | 00:00:00 | 00:00:00 | |
| LZ4TU-5 | 2026-09-05 17:48:22 | 44.68008 | 20.83151 | 106° | 102km/h | 11216m | 5.9m/s | -49.5°C | 41.0% | 0hPa | 0V | 00:00:00 | 00:00:00 | 00:00:00 | |
| LZ4TU-5 | 2026-09-05 17:47:36 | 44.68404 | 20.81668 | 108° | 80km/h | 11000m | 6.3m/s | -48.0°C | 41.4% | 0hPa | 0V | 00:00:00 | 00:00:00 | 00:00:00 | |
| LZ4TU-5 | 2026-09-05 17:47:31 | 44.68413 | 20.81493 | 100° | 108km/h | 10975m | 5.9m/s | -47.8°C | 41.9% | 0hPa | 0V | 00:00:00 | 00:00:00 | 00:00:00 | |
| LZ4TU-5 | 2026-09-05 17:46:58 | 44.68636 | 20.80500 | 101° | 97km/h | 10784m | 5.9m/s | -46.3°C | 46.4% | 0hPa | 0V | 00:00:00 | 00:00:00 | 00:00:00 | |
| LZ4TU-5 | 2026-09-05 17:46:53 | 44.68669 | 20.80354 | 118° | 78km/h | 10754m | 5.4m/s | -46.1°C | 46.8% | 0hPa | 0V | 00:00:00 | 00:00:00 | 00:00:00 | |
| LZ4TU-5 | 2026-09-05 17:46:04 | 44.68999 | 20.78923 | 102° | 86km/h | 10475m | 5.0m/s | -43.7°C | 44.1% | 0hPa | 0V | 00:00:00 | 00:00:00 | 00:00:00 | |
| LZ4TU-5 | 2026-09-05 17:46:00 | 44.69030 | 20.78809 | 114° | 88km/h | 10456m | 4.9m/s | -43.5°C | 43.7% | 0hPa | 0V | 00:00:00 | 00:00:00 | 00:00:00 | |
| LZ4TU-5 | 2026-09-05 17:45:26 | 44.69292 | 20.77818 | 114° | 88km/h | 10292m | 3.8m/s | -42.1°C | 41.2% | 0hPa | 0V | 00:00:00 | 00:00:00 | 00:00:00 | |
| LZ4TU-5 | 2026-09-05 17:45:22 | 44.69319 | 20.77701 | 109° | 89km/h | 10274m | 3.4m/s | -41.9°C | 40.5% | 0hPa | 0V | 00:00:00 | 00:00:00 | 00:00:00 | |
| LZ4TU-5 | 2026-09-05 17:45:18 | 44.69353 | 20.77587 | 116° | 88km/h | 10254m | 5.1m/s | -41.7°C | 39.9% | 0hPa | 0V | 00:00:00 | 00:00:00 | 00:00:00 | |
| LZ4TU-5 | 2026-09-05 17:45:13 | 44.69398 | 20.77432 | 115° | 93km/h | 10228m | 4.1m/s | -41.5°C | 0% | 0hPa | 0V | 00:00:00 | 00:00:00 | 00:00:00 | |
| LZ4TU-5 | 2026-09-05 17:44:27 | 44.69757 | 20.76078 | 121° | 93km/h | 9949m | 5.6m/s | -39.1°C | 31.5% | 0hPa | 0V | 00:00:00 | 00:00:00 | 00:00:00 | |
| LZ4TU-5 | 2026-09-05 17:44:23 | 44.69795 | 20.75951 | 107° | 100km/h | 9926m | 6.8m/s | -38.9°C | 30.7% | 0hPa | 0V | 00:00:00 | 00:00:00 | 00:00:00 | |
| LZ4TU-5 | 2026-09-05 17:43:51 | 44.70030 | 20.74967 | 117° | 95km/h | 9720m | 4.0m/s | -37.2°C | 30.0% | 0hPa | 0V | 00:00:00 | 00:00:00 | 00:00:00 | |
| LZ4TU-5 | 2026-09-05 17:43:46 | 44.70071 | 20.74808 | 110° | 95km/h | 9694m | 5.9m/s | -37.0°C | 30.4% | 0hPa | 0V | 00:00:00 | 00:00:00 | 00:00:00 | |
| LZ4TU-5 | 2026-09-05 17:43:02 | 44.70432 | 20.73464 | 116° | 108km/h | 9462m | 2.8m/s | -35.0°C | 28.8% | 0hPa | 0V | 00:00:00 | 00:00:00 | 00:00:00 | |
| LZ4TU-5 | 2026-09-05 17:42:57 | 44.70477 | 20.73310 | 109° | 89km/h | 9428m | 8.0m/s | -34.8°C | 28.8% | 0hPa | 0V | 00:00:00 | 00:00:00 | 00:00:00 | |
| LZ4TU-5 | 2026-09-05 17:42:23 | 44.70745 | 20.72325 | 99° | 89km/h | 9247m | 3.6m/s | -33.4°C | 31.9% | 0hPa | 0V | 00:00:00 | 00:00:00 | 00:00:00 | |
| LZ4TU-5 | 2026-09-05 17:42:18 | 44.70781 | 20.72175 | 121° | 93km/h | 9216m | 6.1m/s | -33.1°C | 31.8% | 0hPa | 0V | 00:00:00 | 00:00:00 | 00:00:00 | |
| LZ4TU-5 | 2026-09-05 17:41:29 | 44.71154 | 20.70713 | 110° | 102km/h | 8935m | 6.0m/s | -30.7°C | 28.4% | 0hPa | 0V | 00:00:00 | 00:00:00 | 00:00:00 | |
| LZ4TU-5 | 2026-09-05 17:41:24 | 44.71192 | 20.70537 | 107° | 91km/h | 8909m | 5.1m/s | -30.5°C | 27.9% | 0hPa | 0V | 00:00:00 | 00:00:00 | 00:00:00 | |
| LZ4TU-5 | 2026-09-05 17:41:19 | 44.71234 | 20.70396 | 117° | 93km/h | 8884m | 4.5m/s | -30.3°C | 27.3% | 0hPa | 0V | 00:00:00 | 00:00:00 | 00:00:00 | |
| LZ4TU-5 | 2026-09-05 17:39:53 | 44.71857 | 20.67950 | 95° | 73km/h | 8418m | 4.6m/s | -28.0°C | 40.2% | 0hPa | 0V | 00:00:00 | 00:00:00 | 00:00:00 | |
| LZ4TU-5 | 2026-09-05 17:38:39 | 44.72236 | 20.65884 | 107° | 100km/h | 8019m | 7.2m/s | -25.1°C | 71.7% | 0hPa | 0V | 00:00:00 | 00:00:00 | 00:00:00 | |
| LZ4TU-5 | 2026-09-05 17:38:34 | 44.72266 | 20.65724 | 109° | 69km/h | 7991m | 5.8m/s | -24.9°C | 72.6% | 0hPa | 0V | 00:00:00 | 00:00:00 | 00:00:00 | |
| LZ4TU-5 | 2026-09-05 17:36:58 | 44.72868 | 20.62886 | 98° | 75km/h | 7437m | 8.7m/s | -20.9°C | 85.3% | 0hPa | 0V | 00:00:00 | 00:00:00 | 00:00:00 | |
| LZ4TU-5 | 2026-09-05 17:36:53 | 44.72893 | 20.62789 | 123° | 64km/h | 7412m | 3.3m/s | -20.6°C | 83.9% | 0hPa | 0V | 00:00:00 | 00:00:00 | 00:00:00 | |
| LZ4TU-5 | 2026-09-05 17:35:44 | 44.73178 | 20.61001 | 115° | 73km/h | 7016m | 5.3m/s | -17.4°C | 75.4% | 0hPa | 0V | 00:00:00 | 00:00:00 | 00:00:00 | |
| LZ4TU-5 | 2026-09-05 17:35:39 | 44.73208 | 20.60874 | 110° | 77km/h | 6990m | 7.0m/s | -17.4°C | 68.7% | 0hPa | 0V | 00:00:00 | 00:00:00 | 00:00:00 | |
| LZ4TU-5 | 2026-09-05 17:34:28 | 44.73560 | 20.59172 | 117° | 89km/h | 6596m | 5.3m/s | -13.9°C | 33.2% | 0hPa | 0V | 00:00:00 | 00:00:00 | 00:00:00 | |
| LZ4TU-5 | 2026-09-05 17:34:24 | 44.73573 | 20.59075 | 82° | 58km/h | 6572m | 3.7m/s | -13.7°C | 32.2% | 0hPa | 0V | 00:00:00 | 00:00:00 | 00:00:00 | |
| LZ4TU-5 | 2026-09-05 17:34:19 | 44.73586 | 20.58940 | 114° | 93km/h | 6541m | 7.0m/s | -13.4°C | 30.9% | 0hPa | 0V | 00:00:00 | 00:00:00 | 00:00:00 |